createdAt,value
2024-02-03T00:00:24.112Z,1018.44
2024-02-03T00:01:24.060Z,1018.47
2024-02-03T00:02:24.050Z,1018.52
2024-02-03T00:03:24.028Z,1018.52
2024-02-03T00:04:24.074Z,1018.46
2024-02-03T00:05:24.006Z,1018.51
2024-02-03T00:06:24.078Z,1018.48
2024-02-03T00:07:24.038Z,1018.40
2024-02-03T00:08:23.997Z,1018.45
2024-02-03T00:09:24.032Z,1018.42
2024-02-03T00:10:23.956Z,1018.43
2024-02-03T00:11:26.464Z,1018.43
2024-02-03T00:12:23.971Z,1018.42
2024-02-03T00:13:23.938Z,1018.46
2024-02-03T00:14:23.917Z,1018.49
2024-02-03T00:15:23.940Z,1018.48
2024-02-03T00:16:23.890Z,1018.41
2024-02-03T00:17:23.909Z,1018.47
2024-02-03T00:18:23.936Z,1018.49
2024-02-03T00:19:23.870Z,1018.41
2024-02-03T00:20:23.839Z,1018.44
2024-02-03T00:21:23.854Z,1018.46
2024-02-03T00:22:23.834Z,1018.49
2024-02-03T00:23:23.838Z,1018.49
2024-02-03T00:24:23.824Z,1018.47
2024-02-03T00:25:23.783Z,1018.48
2024-02-03T00:26:23.777Z,1018.46
2024-02-03T00:27:23.789Z,1018.52
2024-02-03T00:28:23.759Z,1018.56
2024-02-03T00:29:23.737Z,1018.52
2024-02-03T00:30:23.784Z,1018.45
2024-02-03T00:31:23.759Z,1018.48
2024-02-03T00:32:23.789Z,1018.38
2024-02-03T00:33:23.907Z,1018.43
2024-02-03T00:34:23.755Z,1018.43
2024-02-03T00:35:23.672Z,1018.42
2024-02-03T00:36:23.726Z,1018.43
2024-02-03T00:37:23.661Z,1018.49
2024-02-03T00:38:23.644Z,1018.42
2024-02-03T00:39:23.656Z,1018.40
2024-02-03T00:40:23.703Z,1018.38
2024-02-03T00:41:23.676Z,1018.40
2024-02-03T00:42:23.612Z,1018.41
2024-02-03T00:43:23.582Z,1018.31
2024-02-03T00:44:23.586Z,1018.27
2024-02-03T00:45:23.594Z,1018.26
2024-02-03T00:46:23.583Z,1018.18
2024-02-03T00:47:23.563Z,1018.27
2024-02-03T00:48:23.709Z,1018.28
2024-02-03T00:49:23.580Z,1018.29
2024-02-03T00:50:23.569Z,1018.24
2024-02-03T00:51:23.559Z,1018.17
2024-02-03T00:52:23.496Z,1018.13
2024-02-03T00:53:23.482Z,1018.08
2024-02-03T00:54:23.531Z,1018.07
2024-02-03T00:55:23.552Z,1018.09
2024-02-03T00:56:23.457Z,1018.11
2024-02-03T00:57:23.467Z,1018.09
2024-02-03T00:58:23.431Z,1018.03
2024-02-03T00:59:23.427Z,1018.00
2024-02-03T01:00:23.416Z,1018.02
2024-02-03T01:01:23.425Z,1018.06
2024-02-03T01:02:23.376Z,1018.05
2024-02-03T01:03:23.410Z,1018.06
2024-02-03T01:04:23.524Z,1018.06
2024-02-03T01:05:23.409Z,1018.09
2024-02-03T01:06:23.498Z,1018.10
2024-02-03T01:07:23.340Z,1018.11
2024-02-03T01:08:23.317Z,1018.14
2024-02-03T01:09:23.362Z,1018.14
2024-02-03T01:10:23.287Z,1018.13
2024-02-03T01:11:23.281Z,1018.16
2024-02-03T01:12:23.308Z,1018.14
2024-02-03T01:13:23.301Z,1018.19
2024-02-03T01:14:23.255Z,1018.21
2024-02-03T01:15:23.290Z,1018.22
2024-02-03T01:16:23.227Z,1018.22
2024-02-03T01:17:23.228Z,1018.20
2024-02-03T01:18:23.314Z,1018.21
2024-02-03T01:19:23.289Z,1018.17
2024-02-03T01:20:23.183Z,1018.15
2024-02-03T01:21:23.199Z,1018.16
2024-02-03T01:22:23.159Z,1018.14
2024-02-03T01:23:23.173Z,1018.09
2024-02-03T01:24:23.167Z,1018.13
2024-02-03T01:25:23.145Z,1018.16
2024-02-03T01:26:23.115Z,1018.20
2024-02-03T01:27:23.147Z,1018.14
2024-02-03T01:28:23.118Z,1018.23
2024-02-03T01:29:23.093Z,1018.19
2024-02-03T01:30:23.108Z,1018.17
2024-02-03T01:31:23.071Z,1018.18
2024-02-03T01:32:23.075Z,1018.17
2024-02-03T01:33:23.185Z,1018.20
2024-02-03T01:34:23.132Z,1018.15
2024-02-03T01:35:23.027Z,1018.13
2024-02-03T01:36:23.047Z,1018.13
2024-02-03T01:37:23.011Z,1018.18
2024-02-03T01:38:22.983Z,1018.15
2024-02-03T01:39:22.996Z,1018.06
2024-02-03T01:40:22.969Z,1018.11
2024-02-03T01:41:22.955Z,1018.15
2024-02-03T01:42:23.025Z,1018.16
2024-02-03T01:43:22.935Z,1018.11
2024-02-03T01:44:22.918Z,1018.16
2024-02-03T01:45:22.941Z,1018.12
2024-02-03T01:46:22.909Z,1018.15
2024-02-03T01:47:22.954Z,1018.15
2024-02-03T01:48:22.971Z,1018.12
2024-02-03T01:49:22.920Z,1018.06
2024-02-03T01:50:22.860Z,1018.13
2024-02-03T01:51:22.875Z,1018.07
2024-02-03T01:52:22.825Z,1018.05
2024-02-03T01:53:22.836Z,1018.05
2024-02-03T01:54:22.822Z,1018.03
2024-02-03T01:55:22.794Z,1017.98
2024-02-03T01:56:22.833Z,1017.99
2024-02-03T01:57:22.821Z,1017.94
2024-02-03T01:58:22.767Z,1018.03
2024-02-03T01:59:22.756Z,1017.93
2024-02-03T02:00:22.849Z,1017.94
2024-02-03T02:01:23.166Z,1018.01
2024-02-03T02:02:22.721Z,1017.96
2024-02-03T02:03:22.790Z,1018.07
2024-02-03T02:04:22.857Z,1018.00
2024-02-03T02:05:22.699Z,1018.00
2024-02-03T02:06:22.823Z,1017.87
2024-02-03T02:07:22.741Z,1017.97
2024-02-03T02:08:22.656Z,1017.89
2024-02-03T02:09:22.651Z,1017.91
2024-02-03T02:10:22.648Z,1018.00
2024-02-03T02:11:22.626Z,1017.92
2024-02-03T02:12:22.641Z,1017.99
2024-02-03T02:13:22.603Z,1017.92
2024-02-03T02:14:22.598Z,1017.99
2024-02-03T02:15:22.620Z,1017.91
2024-02-03T02:16:22.564Z,1017.98
2024-02-03T02:17:22.579Z,1017.99
2024-02-03T02:18:22.749Z,1018.03
2024-02-03T02:19:22.754Z,1018.01
2024-02-03T02:20:22.550Z,1018.02
2024-02-03T02:21:22.583Z,1017.94
2024-02-03T02:22:22.515Z,1017.99
2024-02-03T02:23:22.494Z,1017.96
2024-02-03T02:24:22.543Z,1018.04
2024-02-03T02:25:22.469Z,1018.04
2024-02-03T02:26:22.468Z,1018.01
2024-02-03T02:27:22.514Z,1018.01
2024-02-03T02:28:22.448Z,1017.97
2024-02-03T02:29:22.435Z,1018.00
2024-02-03T02:30:22.479Z,1017.89
2024-02-03T02:31:22.398Z,1018.04
2024-02-03T02:32:22.613Z,1017.99
2024-02-03T02:33:22.550Z,1017.99
2024-02-03T02:34:22.551Z,1017.99
2024-02-03T02:35:22.356Z,1017.96
2024-02-03T02:36:22.376Z,1017.98
2024-02-03T02:37:22.377Z,1017.96
2024-02-03T02:38:22.350Z,1018.01
2024-02-03T02:39:22.356Z,1018.00
2024-02-03T02:40:22.321Z,1017.96
2024-02-03T02:41:22.291Z,1017.84
2024-02-03T02:42:22.318Z,1017.97
2024-02-03T02:43:22.284Z,1017.93
2024-02-03T02:44:22.273Z,1017.84
2024-02-03T02:45:22.275Z,1017.95
2024-02-03T02:46:22.239Z,1017.88
2024-02-03T02:47:22.236Z,1017.90
2024-02-03T02:48:22.407Z,1017.83
2024-02-03T02:49:22.263Z,1017.94
2024-02-03T02:50:22.204Z,1017.90
2024-02-03T02:51:22.228Z,1017.80
2024-02-03T02:52:22.203Z,1017.86
2024-02-03T02:53:22.156Z,1017.85
2024-02-03T02:54:22.184Z,1017.82
2024-02-03T02:55:22.163Z,1017.83
2024-02-03T02:56:22.153Z,1017.87
2024-02-03T02:57:22.189Z,1017.82
2024-02-03T02:58:22.103Z,1017.79
2024-02-03T02:59:22.093Z,1017.82
2024-02-03T03:00:22.155Z,1017.77
2024-02-03T03:01:22.149Z,1017.76
2024-02-03T03:02:22.079Z,1017.80
2024-02-03T03:03:22.091Z,1017.80
2024-02-03T03:04:22.261Z,1017.80
2024-02-03T03:05:22.028Z,1017.77
2024-02-03T03:06:22.161Z,1017.78
2024-02-03T03:07:22.146Z,1017.79
2024-02-03T03:08:22.021Z,1017.86
2024-02-03T03:09:21.997Z,1017.84
2024-02-03T03:10:21.995Z,1017.81
2024-02-03T03:11:21.971Z,1017.74
2024-02-03T03:12:21.988Z,1017.82
2024-02-03T03:13:21.935Z,1017.83
2024-02-03T03:14:21.981Z,1017.84
2024-02-03T03:15:21.958Z,1017.82
2024-02-03T03:16:21.910Z,1017.81
2024-02-03T03:17:21.895Z,1017.78
2024-02-03T03:18:22.092Z,1017.85
2024-02-03T03:19:22.029Z,1017.79
2024-02-03T03:20:21.881Z,1017.73
2024-02-03T03:21:21.952Z,1017.79
2024-02-03T03:22:21.850Z,1017.75
2024-02-03T03:23:21.878Z,1017.85
2024-02-03T03:24:21.843Z,1017.83
2024-02-03T03:25:21.818Z,1017.84
2024-02-03T03:26:21.808Z,1017.85
2024-02-03T03:27:21.843Z,1017.83
2024-02-03T03:28:21.791Z,1017.87
2024-02-03T03:29:21.777Z,1017.87
2024-02-03T03:30:21.830Z,1017.84
2024-02-03T03:31:21.740Z,1017.81
2024-02-03T03:32:21.738Z,1017.89
2024-02-03T03:33:21.784Z,1017.76
2024-02-03T03:34:21.800Z,1017.78
2024-02-03T03:35:21.701Z,1017.76
2024-02-03T03:36:21.720Z,1017.66
2024-02-03T03:37:21.691Z,1017.59
2024-02-03T03:38:21.688Z,1017.64
2024-02-03T03:39:21.720Z,1017.58
2024-02-03T03:40:21.647Z,1017.58
2024-02-03T03:41:21.632Z,1017.56
2024-02-03T03:42:21.643Z,1017.62
2024-02-03T03:43:21.658Z,1017.54
2024-02-03T03:44:21.603Z,1017.45
2024-02-03T03:45:21.615Z,1017.50
2024-02-03T03:46:21.582Z,1017.41
2024-02-03T03:47:21.564Z,1017.36
2024-02-03T03:48:21.866Z,1017.26
2024-02-03T03:49:21.571Z,1017.39
2024-02-03T03:50:21.547Z,1017.42
2024-02-03T03:51:21.575Z,1017.43
2024-02-03T03:52:21.528Z,1017.45
2024-02-03T03:53:21.509Z,1017.40
2024-02-03T03:54:21.500Z,1017.47
2024-02-03T03:55:21.482Z,1017.48
2024-02-03T03:56:21.478Z,1017.52
2024-02-03T03:57:21.520Z,1017.51
2024-02-03T03:58:21.453Z,1017.49
2024-02-03T03:59:21.434Z,1017.46
2024-02-03T04:00:21.467Z,1017.51
2024-02-03T04:01:21.429Z,1017.56
2024-02-03T04:02:21.421Z,1017.53
2024-02-03T04:03:21.485Z,1017.55
2024-02-03T04:04:21.416Z,1017.59
2024-02-03T04:05:21.371Z,1017.58
2024-02-03T04:06:21.503Z,1017.56
2024-02-03T04:07:21.369Z,1017.58
2024-02-03T04:08:21.347Z,1017.54
2024-02-03T04:09:21.334Z,1017.51
2024-02-03T04:10:21.320Z,1017.50
2024-02-03T04:11:21.313Z,1017.48
2024-02-03T04:12:21.324Z,1017.48
2024-02-03T04:13:21.292Z,1017.48
2024-02-03T04:14:21.277Z,1017.41
2024-02-03T04:15:21.318Z,1017.47
2024-02-03T04:16:21.276Z,1017.47
2024-02-03T04:17:21.239Z,1017.48
2024-02-03T04:18:21.374Z,1017.54
2024-02-03T04:19:21.316Z,1017.54
2024-02-03T04:20:21.353Z,1017.57
2024-02-03T04:21:21.201Z,1017.57
2024-02-03T04:22:21.187Z,1017.55
2024-02-03T04:23:21.176Z,1017.51
2024-02-03T04:24:21.189Z,1017.52
2024-02-03T04:25:21.193Z,1017.51
2024-02-03T04:26:21.140Z,1017.58
2024-02-03T04:27:21.135Z,1017.60
2024-02-03T04:28:21.123Z,1017.56
2024-02-03T04:29:21.102Z,1017.42
2024-02-03T04:30:24.068Z,1017.51
2024-02-03T04:31:21.084Z,1017.56
2024-02-03T04:32:21.115Z,1017.50
2024-02-03T04:33:21.146Z,1017.52
2024-02-03T04:34:21.168Z,1017.52
2024-02-03T04:35:21.048Z,1017.53
2024-02-03T04:36:21.093Z,1017.56
2024-02-03T04:37:21.020Z,1017.54
2024-02-03T04:38:21.019Z,1017.54
2024-02-03T04:39:21.088Z,1017.49
2024-02-03T04:40:21.027Z,1017.53
2024-02-03T04:41:20.977Z,1017.54
2024-02-03T04:42:21.008Z,1017.51
2024-02-03T04:43:20.950Z,1017.53
2024-02-03T04:44:20.953Z,1017.54
2024-02-03T04:45:20.974Z,1017.54
2024-02-03T04:46:20.925Z,1017.59
2024-02-03T04:47:20.964Z,1017.63
2024-02-03T04:48:20.968Z,1017.60
2024-02-03T04:49:21.069Z,1017.65
2024-02-03T04:50:20.879Z,1017.63
2024-02-03T04:51:20.877Z,1017.59
2024-02-03T04:52:20.858Z,1017.60
2024-02-03T04:53:20.854Z,1017.59
2024-02-03T04:54:20.868Z,1017.62
2024-02-03T04:55:20.819Z,1017.65
2024-02-03T04:56:20.813Z,1017.60
2024-02-03T04:57:20.823Z,1017.62
2024-02-03T04:58:20.797Z,1017.54
2024-02-03T04:59:20.779Z,1017.55
2024-02-03T05:00:20.815Z,1017.57
2024-02-03T05:01:20.797Z,1017.50
2024-02-03T05:02:20.772Z,1017.53
2024-02-03T05:03:20.837Z,1017.53
2024-02-03T05:04:20.880Z,1017.51
2024-02-03T05:05:20.731Z,1017.52
2024-02-03T05:06:20.762Z,1017.52
2024-02-03T05:07:20.771Z,1017.53
2024-02-03T05:08:20.681Z,1017.56
2024-02-03T05:09:20.705Z,1017.52
2024-02-03T05:10:20.679Z,1017.55
2024-02-03T05:11:20.652Z,1017.51
2024-02-03T05:12:20.819Z,1017.47
2024-02-03T05:13:20.619Z,1017.47
2024-02-03T05:14:20.627Z,1017.47
2024-02-03T05:15:20.708Z,1017.46
2024-02-03T05:16:20.600Z,1017.45
2024-02-03T05:17:20.570Z,1017.47
2024-02-03T05:18:20.725Z,1017.43
2024-02-03T05:19:20.932Z,1017.49
2024-02-03T05:20:20.557Z,1017.49
2024-02-03T05:21:20.552Z,1017.41
2024-02-03T05:22:20.533Z,1017.42
2024-02-03T05:23:20.514Z,1017.44
2024-02-03T05:24:20.593Z,1017.43
2024-02-03T05:25:20.501Z,1017.43
2024-02-03T05:26:20.521Z,1017.38
2024-02-03T05:27:20.587Z,1017.41
2024-02-03T05:28:20.461Z,1017.43
2024-02-03T05:29:20.440Z,1017.48
2024-02-03T05:30:20.488Z,1017.47
2024-02-03T05:31:20.421Z,1017.53
2024-02-03T05:32:20.421Z,1017.47
2024-02-03T05:33:20.554Z,1017.49
2024-02-03T05:34:20.499Z,1017.46
2024-02-03T05:35:20.384Z,1017.43
2024-02-03T05:36:20.391Z,1017.46
2024-02-03T05:37:20.353Z,1017.45
2024-02-03T05:38:20.345Z,1017.44
2024-02-03T05:39:20.417Z,1017.41
2024-02-03T05:40:22.577Z,1017.46
2024-02-03T05:41:20.315Z,1017.43
2024-02-03T05:42:23.706Z,1017.48
2024-02-03T05:43:20.284Z,1017.51
2024-02-03T05:44:20.291Z,1017.46
2024-02-03T05:45:20.286Z,1017.45
2024-02-03T05:46:20.259Z,1017.46
2024-02-03T05:47:20.252Z,1017.43
2024-02-03T05:48:20.261Z,1017.41
2024-02-03T05:49:20.310Z,1017.49
2024-02-03T05:50:20.214Z,1017.46
2024-02-03T05:51:20.221Z,1017.46
2024-02-03T05:52:20.252Z,1017.44
2024-02-03T05:53:20.185Z,1017.44
2024-02-03T05:54:20.209Z,1017.43
2024-02-03T05:55:20.196Z,1017.49
2024-02-03T05:56:20.170Z,1017.45
2024-02-03T05:57:20.321Z,1017.47
2024-02-03T05:58:20.150Z,1017.44
2024-02-03T05:59:32.717Z,1017.45
2024-02-03T06:00:20.151Z,1017.46
2024-02-03T06:01:20.179Z,1017.49
2024-02-03T06:02:20.096Z,1017.44
2024-02-03T06:03:20.123Z,1017.35
2024-02-03T06:04:20.154Z,1017.48
2024-02-03T06:05:20.066Z,1017.50
2024-02-03T06:06:26.201Z,1017.45
2024-02-03T06:07:20.142Z,1017.41
2024-02-03T06:08:20.089Z,1017.40
2024-02-03T06:09:20.040Z,1017.41
2024-02-03T06:10:20.012Z,1017.42
2024-02-03T06:11:19.998Z,1017.39
2024-02-03T06:12:20.014Z,1017.28
2024-02-03T06:13:19.960Z,1017.37
2024-02-03T06:14:19.988Z,1017.34
2024-02-03T06:15:19.987Z,1017.36
2024-02-03T06:16:19.970Z,1017.26
2024-02-03T06:17:19.952Z,1017.25
2024-02-03T06:18:20.025Z,1017.21
2024-02-03T06:19:19.988Z,1017.19
2024-02-03T06:20:19.893Z,1017.22
2024-02-03T06:21:19.905Z,1017.20
2024-02-03T06:22:19.871Z,1017.20
2024-02-03T06:23:19.849Z,1017.23
2024-02-03T06:24:19.932Z,1017.25
2024-02-03T06:25:19.829Z,1017.27
2024-02-03T06:26:19.908Z,1017.28
2024-02-03T06:27:19.833Z,1017.26
2024-02-03T06:28:19.801Z,1017.26
2024-02-03T06:29:19.799Z,1017.24
2024-02-03T06:30:19.830Z,1017.30
2024-02-03T06:31:19.785Z,1017.28
2024-02-03T06:32:19.797Z,1017.24
2024-02-03T06:33:19.928Z,1017.28
2024-02-03T06:34:19.791Z,1017.35
2024-02-03T06:35:19.750Z,1017.27
2024-02-03T06:36:19.751Z,1017.29
2024-02-03T06:37:19.699Z,1017.29
2024-02-03T06:38:19.690Z,1017.27
2024-02-03T06:39:19.771Z,1017.28
2024-02-03T06:40:19.699Z,1017.33
2024-02-03T06:41:19.679Z,1017.28
2024-02-03T06:42:19.671Z,1017.36
2024-02-03T06:43:19.641Z,1017.26
2024-02-03T06:44:19.635Z,1017.19
2024-02-03T06:45:19.659Z,1017.25
2024-02-03T06:46:19.613Z,1017.26
2024-02-03T06:47:19.585Z,1017.25
2024-02-03T06:48:19.813Z,1017.25
2024-02-03T06:49:19.701Z,1017.32
2024-02-03T06:50:19.572Z,1017.31
2024-02-03T06:51:19.634Z,1017.31
2024-02-03T06:52:19.549Z,1017.34
2024-02-03T06:53:19.520Z,1017.38
2024-02-03T06:54:19.565Z,1017.41
2024-02-03T06:55:19.504Z,1017.43
2024-02-03T06:56:19.496Z,1017.36
2024-02-03T06:57:19.514Z,1017.34
2024-02-03T06:58:19.484Z,1017.29
2024-02-03T06:59:19.471Z,1017.34
2024-02-03T07:00:19.495Z,1017.35
2024-02-03T07:01:19.496Z,1017.34
2024-02-03T07:02:19.433Z,1017.29
2024-02-03T07:03:19.462Z,1017.28
2024-02-03T07:04:19.638Z,1017.31
2024-02-03T07:05:19.396Z,1017.31
2024-02-03T07:06:19.450Z,1017.29
2024-02-03T07:07:19.440Z,1017.30
2024-02-03T07:08:19.381Z,1017.27
2024-02-03T07:09:19.382Z,1017.30
2024-02-03T07:10:19.341Z,1017.26
2024-02-03T07:11:19.328Z,1017.23
2024-02-03T07:12:19.365Z,1017.30
2024-02-03T07:13:19.329Z,1017.25
2024-02-03T07:14:19.298Z,1017.30
2024-02-03T07:15:19.305Z,1017.26
2024-02-03T07:16:19.278Z,1017.28
2024-02-03T07:17:19.278Z,1017.27
2024-02-03T07:18:19.402Z,1017.24
2024-02-03T07:19:19.312Z,1017.27
2024-02-03T07:20:19.259Z,1017.24
2024-02-03T07:21:19.245Z,1017.19
2024-02-03T07:22:19.234Z,1017.26
2024-02-03T07:23:19.202Z,1017.19
2024-02-03T07:24:19.221Z,1017.21
2024-02-03T07:25:19.186Z,1017.27
2024-02-03T07:26:19.180Z,1017.23
2024-02-03T07:27:19.243Z,1017.23
2024-02-03T07:28:19.146Z,1017.26
2024-02-03T07:29:19.168Z,1017.23
2024-02-03T07:30:19.148Z,1017.23
2024-02-03T07:31:19.120Z,1017.23
2024-02-03T07:32:19.115Z,1017.21
2024-02-03T07:33:19.233Z,1017.30
2024-02-03T07:34:19.250Z,1017.31
2024-02-03T07:35:19.236Z,1017.33
2024-02-03T07:36:19.117Z,1017.27
2024-02-03T07:37:19.046Z,1017.28
2024-02-03T07:38:19.051Z,1017.32
2024-02-03T07:39:19.035Z,1017.33
2024-02-03T07:40:19.035Z,1017.41
2024-02-03T07:41:19.006Z,1017.37
2024-02-03T07:42:18.998Z,1017.31
2024-02-03T07:43:20.526Z,1017.33
2024-02-03T07:44:18.977Z,1017.31
2024-02-03T07:45:18.993Z,1017.30
2024-02-03T07:46:18.943Z,1017.31
2024-02-03T07:47:18.929Z,1017.24
2024-02-03T07:48:19.103Z,1017.30
2024-02-03T07:49:18.991Z,1017.30
2024-02-03T07:50:18.924Z,1017.30
2024-02-03T07:51:18.936Z,1017.19
2024-02-03T07:52:18.885Z,1017.27
2024-02-03T07:53:18.948Z,1017.27
2024-02-03T07:54:18.981Z,1017.29
2024-02-03T07:55:18.893Z,1017.35
2024-02-03T07:56:18.834Z,1017.37
2024-02-03T07:57:18.836Z,1017.36
2024-02-03T07:58:18.812Z,1017.38
2024-02-03T07:59:18.818Z,1017.31
2024-02-03T08:00:18.871Z,1017.37
2024-02-03T08:01:18.832Z,1017.36
2024-02-03T08:02:18.771Z,1017.29
2024-02-03T08:03:18.831Z,1017.31
2024-02-03T08:04:18.882Z,1017.26
2024-02-03T08:05:18.819Z,1017.25
2024-02-03T08:06:19.000Z,1017.19
2024-02-03T08:07:18.747Z,1017.21
2024-02-03T08:08:18.709Z,1017.23
2024-02-03T08:09:18.730Z,1017.15
2024-02-03T08:10:18.678Z,1017.17
2024-02-03T08:11:18.691Z,1017.15
2024-02-03T08:12:18.689Z,1017.19
2024-02-03T08:13:18.664Z,1017.20
2024-02-03T08:14:18.636Z,1017.23
2024-02-03T08:15:18.628Z,1017.17
2024-02-03T08:16:18.616Z,1017.22
2024-02-03T08:17:18.620Z,1017.19
2024-02-03T08:18:18.696Z,1017.20
2024-02-03T08:19:18.726Z,1017.22
2024-02-03T08:20:18.586Z,1017.19
2024-02-03T08:21:18.593Z,1017.21
2024-02-03T08:22:18.608Z,1017.25
2024-02-03T08:23:18.557Z,1017.29
2024-02-03T08:24:18.549Z,1017.25
2024-02-03T08:25:18.521Z,1017.33
2024-02-03T08:26:18.561Z,1017.27
2024-02-03T08:27:18.568Z,1017.27
2024-02-03T08:28:18.518Z,1017.25
2024-02-03T08:29:18.483Z,1017.29
2024-02-03T08:30:18.493Z,1017.24
2024-02-03T08:31:18.477Z,1017.21
2024-02-03T08:32:18.450Z,1017.16
2024-02-03T08:33:18.543Z,1017.13
2024-02-03T08:34:18.570Z,1017.17
2024-02-03T08:35:19.166Z,1017.14
2024-02-03T08:36:18.446Z,1017.18
2024-02-03T08:37:18.382Z,1017.16
2024-02-03T08:38:18.383Z,1017.13
2024-02-03T08:40:18.379Z,1017.23
2024-02-03T08:41:18.353Z,1017.26
2024-02-03T08:42:18.351Z,1017.24
2024-02-03T08:43:18.397Z,1017.20
2024-02-03T08:44:18.311Z,1017.23
2024-02-03T08:45:18.335Z,1017.31
2024-02-03T08:46:18.293Z,1017.33
2024-02-03T08:47:18.274Z,1017.30
2024-02-03T08:48:18.437Z,1017.38
2024-02-03T08:49:18.450Z,1017.36
2024-02-03T08:50:18.249Z,1017.38
2024-02-03T08:51:18.279Z,1017.38
2024-02-03T08:52:18.375Z,1017.35
2024-02-03T08:53:18.269Z,1017.39
2024-02-03T08:54:18.226Z,1017.38
2024-02-03T08:55:18.277Z,1017.38
2024-02-03T08:56:18.236Z,1017.34
2024-02-03T08:57:18.267Z,1017.40
2024-02-03T08:58:18.155Z,1017.44
2024-02-03T08:59:18.204Z,1017.44
2024-02-03T09:00:18.166Z,1017.42
2024-02-03T09:01:18.176Z,1017.38
2024-02-03T09:02:18.136Z,1017.40
2024-02-03T09:03:18.191Z,1017.37
2024-02-03T09:04:18.241Z,1017.41
2024-02-03T09:05:18.116Z,1017.44
2024-02-03T09:06:18.099Z,1017.39
2024-02-03T09:07:18.066Z,1017.41
2024-02-03T09:08:18.054Z,1017.43
2024-02-03T09:09:18.053Z,1017.48
2024-02-03T09:10:18.022Z,1017.43
2024-02-03T09:11:18.016Z,1017.48
2024-02-03T09:12:18.008Z,1017.50
2024-02-03T09:13:18.004Z,1017.52
2024-02-03T09:14:17.994Z,1017.46
2024-02-03T09:15:18.051Z,1017.50
2024-02-03T09:16:17.967Z,1017.52
2024-02-03T09:17:17.945Z,1017.53
2024-02-03T09:18:18.142Z,1017.51
2024-02-03T09:19:18.170Z,1017.54
2024-02-03T09:20:17.986Z,1017.56
2024-02-03T09:21:20.462Z,1017.57
2024-02-03T09:22:17.910Z,1017.39
2024-02-03T09:23:17.899Z,1017.56
2024-02-03T09:24:17.890Z,1017.48
2024-02-03T09:25:17.855Z,1017.53
2024-02-03T09:26:17.860Z,1017.52
2024-02-03T09:27:17.864Z,1017.51
2024-02-03T09:28:17.840Z,1017.50
2024-02-03T09:29:17.821Z,1017.52
2024-02-03T09:30:17.855Z,1017.51
2024-02-03T09:31:17.790Z,1017.47
2024-02-03T09:32:17.794Z,1017.57
2024-02-03T09:33:17.851Z,1017.49
2024-02-03T09:34:17.858Z,1017.49
2024-02-03T09:35:17.749Z,1017.51
2024-02-03T09:36:17.763Z,1017.51
2024-02-03T09:38:17.837Z,1017.49
2024-02-03T09:39:17.741Z,1017.49
2024-02-03T09:40:17.695Z,1017.49
2024-02-03T09:41:17.690Z,1017.59
2024-02-03T09:42:17.733Z,1017.51
2024-02-03T09:43:17.660Z,1017.56
2024-02-03T09:44:17.678Z,1017.59
2024-02-03T09:45:17.664Z,1017.55
2024-02-03T09:46:17.649Z,1017.56
2024-02-03T09:47:17.634Z,1017.54
2024-02-03T09:48:17.728Z,1017.52
2024-02-03T09:49:17.694Z,1017.57
2024-02-03T09:50:17.600Z,1017.62
2024-02-03T09:51:17.606Z,1017.59
2024-02-03T09:52:17.574Z,1017.62
2024-02-03T09:53:17.545Z,1017.58
2024-02-03T09:54:17.584Z,1017.53
2024-02-03T09:55:17.550Z,1017.54
2024-02-03T09:56:17.520Z,1017.56
2024-02-03T09:57:17.553Z,1017.56
2024-02-03T09:58:17.539Z,1017.59
2024-02-03T09:59:17.506Z,1017.60
2024-02-03T10:00:17.544Z,1017.58
2024-02-03T10:01:17.548Z,1017.56
2024-02-03T10:02:17.464Z,1017.58
2024-02-03T10:03:17.594Z,1017.59
2024-02-03T10:04:17.539Z,1017.58
2024-02-03T10:05:17.415Z,1017.56
2024-02-03T10:06:17.492Z,1017.60
2024-02-03T10:07:17.392Z,1017.63
2024-02-03T10:08:17.401Z,1017.59
2024-02-03T10:09:17.427Z,1017.53
2024-02-03T10:11:17.426Z,1017.59
2024-02-03T10:12:18.960Z,1017.63
2024-02-03T10:13:17.362Z,1017.61
2024-02-03T10:14:17.328Z,1017.56
2024-02-03T10:15:17.326Z,1017.61
2024-02-03T10:16:17.309Z,1017.69
2024-02-03T10:17:17.282Z,1017.67
2024-02-03T10:18:17.342Z,1017.69
2024-02-03T10:19:17.380Z,1017.71
2024-02-03T10:20:17.302Z,1017.71
2024-02-03T10:21:17.264Z,1017.71
2024-02-03T10:22:17.233Z,1017.68
2024-02-03T10:23:17.253Z,1017.64
2024-02-03T10:24:17.215Z,1017.77
2024-02-03T10:25:20.372Z,1017.74
2024-02-03T10:26:17.194Z,1017.73
2024-02-03T10:27:17.218Z,1017.68
2024-02-03T10:28:17.172Z,1017.64
2024-02-03T10:29:17.147Z,1017.68
2024-02-03T10:30:17.164Z,1017.61
2024-02-03T10:31:17.165Z,1017.65
2024-02-03T10:32:17.127Z,1017.68
2024-02-03T10:33:17.240Z,1017.65
2024-02-03T10:34:17.168Z,1017.66
2024-02-03T10:35:17.100Z,1017.61
2024-02-03T10:36:17.097Z,1017.67
2024-02-03T10:37:17.113Z,1017.61
2024-02-03T10:38:17.051Z,1017.55
2024-02-03T10:39:17.091Z,1017.58
2024-02-03T10:40:17.041Z,1017.54
2024-02-03T10:41:17.024Z,1017.61
2024-02-03T10:42:17.059Z,1017.60
2024-02-03T10:43:17.016Z,1017.64
2024-02-03T10:44:16.982Z,1017.65
2024-02-03T10:45:17.002Z,1017.60
2024-02-03T10:46:16.975Z,1017.56
2024-02-03T10:47:16.947Z,1017.56
2024-02-03T10:48:17.573Z,1017.57
2024-02-03T10:49:17.026Z,1017.55
2024-02-03T10:50:16.918Z,1017.59
2024-02-03T10:51:16.938Z,1017.53
2024-02-03T10:52:16.933Z,1017.68
2024-02-03T10:53:16.885Z,1017.56
2024-02-03T10:54:16.936Z,1017.55
2024-02-03T10:55:16.878Z,1017.61
2024-02-03T10:56:16.945Z,1017.65
2024-02-03T10:57:16.874Z,1017.64
2024-02-03T10:58:16.826Z,1017.63
2024-02-03T10:59:16.814Z,1017.62
2024-02-03T11:00:16.858Z,1017.61
2024-02-03T11:01:17.107Z,1017.60
2024-02-03T11:02:16.787Z,1017.68
2024-02-03T11:03:16.802Z,1017.63
2024-02-03T11:04:16.909Z,1017.62
2024-02-03T11:05:16.802Z,1017.54
2024-02-03T11:06:16.794Z,1017.61
2024-02-03T11:07:16.731Z,1017.63
2024-02-03T11:08:16.715Z,1017.76
2024-02-03T11:09:16.748Z,1017.70
2024-02-03T11:10:16.702Z,1017.70
2024-02-03T11:11:16.688Z,1017.66
2024-02-03T11:12:16.687Z,1017.72
2024-02-03T11:13:16.699Z,1017.72
2024-02-03T11:14:16.748Z,1017.69
2024-02-03T11:15:16.657Z,1017.67
2024-02-03T11:16:16.632Z,1017.63
2024-02-03T11:17:16.619Z,1017.71
2024-02-03T11:18:16.954Z,1017.66
2024-02-03T11:19:16.663Z,1017.69
2024-02-03T11:20:16.612Z,1017.69
2024-02-03T11:21:16.616Z,1017.71
2024-02-03T11:22:16.557Z,1017.65
2024-02-03T11:23:16.562Z,1017.61
2024-02-03T11:24:16.555Z,1017.75
2024-02-03T11:25:16.532Z,1017.66
2024-02-03T11:26:16.519Z,1017.72
2024-02-03T11:27:16.539Z,1017.71
2024-02-03T11:28:16.502Z,1017.68
2024-02-03T11:29:16.492Z,1017.66
2024-02-03T11:30:16.512Z,1017.78
2024-02-03T11:31:16.465Z,1017.69
2024-02-03T11:32:16.464Z,1017.69
2024-02-03T11:33:16.605Z,1017.65
2024-02-03T11:34:16.515Z,1017.66
2024-02-03T11:35:16.418Z,1017.67
2024-02-03T11:36:16.481Z,1017.70
2024-02-03T11:37:16.409Z,1017.66
2024-02-03T11:38:16.412Z,1017.69
2024-02-03T11:39:16.412Z,1017.70
2024-02-03T11:40:16.370Z,1017.66
2024-02-03T11:41:16.408Z,1017.65
2024-02-03T11:42:16.378Z,1017.66
2024-02-03T11:43:16.337Z,1017.76
2024-02-03T11:44:16.312Z,1017.76
2024-02-03T11:45:16.455Z,1017.76
2024-02-03T11:46:16.298Z,1017.60
2024-02-03T11:47:16.298Z,1017.69
2024-02-03T11:48:16.396Z,1017.59
2024-02-03T11:49:16.387Z,1017.64
2024-02-03T11:50:16.254Z,1017.60
2024-02-03T11:51:16.656Z,1017.58
2024-02-03T11:52:16.249Z,1017.56
2024-02-03T11:53:16.218Z,1017.54
2024-02-03T11:54:16.218Z,1017.51
2024-02-03T11:55:16.210Z,1017.48
2024-02-03T11:56:16.207Z,1017.54
2024-02-03T11:57:16.202Z,1017.53
2024-02-03T11:58:16.154Z,1017.51
2024-02-03T11:59:16.148Z,1017.49
2024-02-03T12:00:16.189Z,1017.49
2024-02-03T12:01:16.172Z,1017.48
2024-02-03T12:02:16.110Z,1017.57
2024-02-03T12:03:16.171Z,1017.47
2024-02-03T12:04:16.181Z,1017.43
2024-02-03T12:05:16.137Z,1017.50
2024-02-03T12:06:16.106Z,1017.51
2024-02-03T12:07:16.094Z,1017.46
2024-02-03T12:08:16.092Z,1017.43